Time;durP1;ratioP1;P1;durP2;ratioP2;P2;SDS_P1;SDS_P2;PMS_P1;PMS_P2;Temp;Humidity;BMP_temperature;BMP_pressure;BME280_temperature;BME280_humidity;BME280_pressure;Samples;Min_cycle;Max_cycle;Signal;HPM_P1;HPM_P2
2021/12/04 00:00:09;;;;;;;0.00;0.00;;;;;19.60;100542.00;;;;4987796;28;20054;-74
2021/12/04 00:02:41;;;;;;;0.00;0.00;;;;;19.60;100536.00;;;;4985346;28;20053;-75
2021/12/04 00:05:12;;;;;;;0.00;0.00;;;;;19.70;100534.00;;;;4986809;28;20453;-73
2021/12/04 00:07:42;;;;;;;0.00;0.00;;;;;19.60;100546.00;;;;4986590;28;20041;-73
2021/12/04 00:10:17;;;;;;;0.20;0.10;;;;;19.50;100551.00;;;;4987250;28;20512;-75
2021/12/04 00:12:47;;;;;;;0.00;0.00;;;;;19.50;100545.00;;;;4984927;28;20074;-74
2021/12/04 00:15:17;;;;;;;0.00;0.00;;;;;19.50;100551.00;;;;4987151;28;20125;-74
2021/12/04 00:17:46;;;;;;;0.20;0.10;;;;;19.40;100547.00;;;;4987719;28;20521;-74
2021/12/04 00:20:16;;;;;;;1.98;0.35;;;;;19.50;100558.00;;;;4987824;28;20070;-75
2021/12/04 00:22:46;;;;;;;0.00;0.00;;;;;19.50;100573.00;;;;4996280;28;20489;-73
2021/12/04 00:25:15;;;;;;;0.00;0.00;;;;;19.30;100577.00;;;;4986748;28;20058;-72
2021/12/04 00:27:51;;;;;;;0.00;0.00;;;;;19.40;100567.00;;;;4987577;28;20041;-75
2021/12/04 00:30:21;;;;;;;0.00;0.00;;;;;19.40;100583.00;;;;4999296;28;20042;-73
2021/12/04 00:33:02;;;;;;;0.28;0.28;;;;;19.40;100573.00;;;;4981615;28;20050;-74
2021/12/04 00:35:37;;;;;;;;;;;;;19.30;100582.00;;;;4985274;28;20538;-74
2021/12/04 00:49:12;;;;;;;0.00;0.00;;;;;19.20;100566.00;;;;4968102;28;20529;-75
2021/12/04 00:51:50;;;;;;;0.00;0.00;;;;;19.10;100581.00;;;;4966915;28;20043;-73
2021/12/04 00:54:24;;;;;;;0.10;0.10;;;;;19.00;100592.00;;;;4966035;28;20038;-76
2021/12/04 00:56:55;;;;;;;0.20;0.00;;;;;19.20;100572.00;;;;4967324;28;20046;-75
2021/12/04 00:59:24;;;;;;;;;;;;;19.20;100598.00;;;;4967777;28;20133;-75
2021/12/04 01:01:53;;;;;;;0.10;0.10;;;;;19.20;100606.00;;;;4966905;28;19925;-75
2021/12/04 01:04:24;;;;;;;0.00;0.00;;;;;19.20;100603.00;;;;4967805;28;20031;-74
2021/12/04 01:06:54;;;;;;;0.00;0.00;;;;;19.20;100604.00;;;;4967514;28;20067;-76
2021/12/04 01:09:24;;;;;;;0.00;0.00;;;;;19.10;100604.00;;;;4981420;28;20074;-73
2021/12/04 01:11:55;;;;;;;;;;;;;18.90;100599.00;;;;4968072;28;20133;-72
2021/12/04 01:14:27;;;;;;;0.00;0.00;;;;;18.90;100589.00;;;;4965799;28;19962;-75
2021/12/04 01:17:12;;;;;;;0.00;0.00;;;;;18.90;100573.00;;;;4962976;28;20062;-78
2021/12/04 01:19:41;;;;;;;0.00;0.00;;;;;18.90;100580.00;;;;4970448;28;20098;-74
2021/12/04 01:22:11;;;;;;;5.18;0.55;;;;;19.00;100582.00;;;;4970737;28;20050;-74
2021/12/04 01:24:56;;;;;;;0.00;0.00;;;;;18.90;100600.00;;;;4970365;28;20564;-74
2021/12/04 01:27:27;;;;;;;0.00;0.00;;;;;18.90;100590.00;;;;4971172;28;20510;-74
2021/12/04 01:29:56;;;;;;;0.00;0.00;;;;;18.80;100594.00;;;;5001822;28;20054;-73
2021/12/04 01:32:26;;;;;;;1.27;0.40;;;;;18.70;100579.00;;;;4970856;28;20089;-73
2021/12/04 01:34:55;;;;;;;0.00;0.00;;;;;18.60;100595.00;;;;4971025;28;20058;-74
2021/12/04 01:37:24;;;;;;;0.00;0.00;;;;;18.50;100571.00;;;;4985416;28;20050;-73
2021/12/04 01:39:54;;;;;;;0.00;0.00;;;;;18.40;100582.00;;;;4970626;28;20038;-73
2021/12/04 01:42:23;;;;;;;0.10;0.10;;;;;18.60;100604.00;;;;5000851;28;20054;-73
2021/12/04 01:44:55;;;;;;;0.00;0.00;;;;;18.50;100596.00;;;;4973195;28;20047;-72
2021/12/04 01:47:25;;;;;;;0.00;0.00;;;;;18.30;100601.00;;;;4989983;28;20046;-73
2021/12/04 01:49:55;;;;;;;0.00;0.00;;;;;18.20;100601.00;;;;4990497;28;20054;-73
2021/12/04 01:52:24;;;;;;;0.00;0.00;;;;;18.10;100597.00;;;;5004756;28;20054;-74
2021/12/04 01:54:57;;;;;;;0.00;0.00;;;;;18.00;100600.00;;;;4989563;28;20093;-75
2021/12/04 01:57:27;;;;;;;0.00;0.00;;;;;17.90;100603.00;;;;4989870;28;20124;-75
2021/12/04 02:00:11;;;;;;;0.00;0.00;;;;;17.90;100600.00;;;;4988727;28;20164;-73
2021/12/04 02:02:44;;;;;;;0.00;0.00;;;;;17.90;100600.00;;;;4990052;28;20061;-75
2021/12/04 02:05:15;;;;;;;0.00;0.00;;;;;17.80;100603.00;;;;4989381;28;20042;-74
2021/12/04 02:07:46;;;;;;;0.00;0.00;;;;;17.80;100600.00;;;;4989771;28;20117;-74
2021/12/04 02:10:16;;;;;;;0.00;0.00;;;;;17.80;100577.00;;;;4989896;28;20460;-74
2021/12/04 02:12:47;;;;;;;0.00;0.00;;;;;17.70;100582.00;;;;4990294;28;20042;-74
2021/12/04 02:15:20;;;;;;;0.00;0.00;;;;;17.70;100573.00;;;;4989461;28;20510;-74
2021/12/04 02:17:50;;;;;;;0.00;0.00;;;;;17.70;100602.00;;;;4989352;28;20046;-75
2021/12/04 02:20:23;;;;;;;0.13;0.03;;;;;17.70;100577.00;;;;5004230;28;20129;-76
2021/12/04 02:23:09;;;;;;;0.00;0.00;;;;;17.60;100601.00;;;;4988869;28;20050;-74
2021/12/04 02:25:39;;;;;;;0.20;0.13;;;;;17.70;100581.00;;;;4989774;28;20548;-72
2021/12/04 02:28:11;;;;;;;118.55;71.70;;;;;17.60;100576.00;;;;4988503;28;20043;-74
2021/12/04 02:30:47;;;;;;;0.00;0.00;;;;;17.50;100558.00;;;;4989356;28;20136;-71
2021/12/04 02:33:18;;;;;;;0.00;0.00;;;;;17.50;100580.00;;;;5004106;28;20101;-73
2021/12/04 02:35:51;;;;;;;0.00;0.00;;;;;17.40;100556.00;;;;4972126;28;20140;-73
2021/12/04 02:38:25;;;;;;;0.00;0.00;;;;;17.40;100560.00;;;;4989024;28;20049;-74
2021/12/04 02:41:00;;;;;;;0.00;0.00;;;;;17.40;100552.00;;;;4971252;28;20129;-73
2021/12/04 02:43:42;;;;;;;0.00;0.00;;;;;17.40;100547.00;;;;4989221;28;20050;-71
2021/12/04 02:46:13;;;;;;;0.00;0.00;;;;;17.60;100543.00;;;;4988433;28;20114;-76
2021/12/04 02:48:47;;;;;;;;;;;;;17.60;100563.00;;;;4989269;28;20042;-75
2021/12/04 02:51:18;;;;;;;0.00;0.00;;;;;17.60;100543.00;;;;4988827;28;20529;-76
2021/12/04 02:53:48;;;;;;;0.00;0.00;;;;;17.50;100550.00;;;;4988708;28;20046;-75
2021/12/04 02:56:18;;;;;;;0.00;0.00;;;;;17.60;100539.00;;;;4972327;28;20498;-75
2021/12/04 02:58:51;;;;;;;0.20;0.20;;;;;17.60;100530.00;;;;4988673;28;20043;-75
2021/12/04 03:01:20;;;;;;;0.00;0.00;;;;;17.60;100549.00;;;;4988548;28;20521;-74
2021/12/04 03:03:50;;;;;;;0.00;0.00;;;;;17.60;100551.00;;;;4988764;28;20050;-74
2021/12/04 03:06:19;;;;;;;0.00;0.00;;;;;17.60;100552.00;;;;4988738;28;20126;-72
2021/12/04 03:08:49;;;;;;;0.00;0.00;;;;;17.70;100532.00;;;;4987704;28;20050;-71
2021/12/04 03:11:18;;;;;;;0.00;0.00;;;;;17.80;100539.00;;;;4988756;28;20038;-71
2021/12/04 03:13:48;;;;;;;0.00;0.00;;;;;17.80;100554.00;;;;4988455;28;20046;-72
2021/12/04 03:16:17;;;;;;;0.00;0.00;;;;;17.70;100555.00;;;;4987384;28;20513;-72
2021/12/04 03:18:46;;;;;;;0.00;0.00;;;;;17.60;100557.00;;;;4989097;28;20093;-76
2021/12/04 03:21:19;;;;;;;0.00;0.00;;;;;17.50;100529.00;;;;5002709;28;20049;-73
2021/12/04 03:26:40;;;;;;;2.30;0.38;;;;;17.50;100534.00;;;;4987149;28;20034;-73
2021/12/04 03:29:13;;;;;;;0.00;0.00;;;;;17.50;100538.00;;;;4970795;28;20046;-75
2021/12/04 03:52:14;;;;;;;0.00;0.00;;;;;17.20;100521.00;;;;5125066;27;20468;-76
2021/12/04 03:54:48;;;;;;;0.00;0.00;;;;;17.30;100509.00;;;;5124487;27;20574;-77
2021/12/04 03:57:17;;;;;;;0.00;0.00;;;;;17.20;100502.00;;;;5123851;27;20065;-75
2021/12/04 03:59:48;;;;;;;0.00;0.00;;;;;17.10;100510.00;;;;5124079;27;20494;-75
2021/12/04 04:02:18;;;;;;;0.00;0.00;;;;;17.10;100507.00;;;;5124335;28;20078;-76
2021/12/04 04:04:48;;;;;;;;;;;;;17.00;100512.00;;;;5124974;27;20568;-74
2021/12/04 04:07:20;;;;;;;0.00;0.00;;;;;17.00;100498.00;;;;5124261;27;19923;-75
2021/12/04 04:09:49;;;;;;;0.00;0.00;;;;;16.90;100500.00;;;;5124836;28;20508;-76
2021/12/04 04:12:20;;;;;;;0.00;0.00;;;;;16.90;100483.00;;;;5124362;28;20044;-77
2021/12/04 04:14:50;;;;;;;0.00;0.00;;;;;16.90;100498.00;;;;5124555;27;20124;-76
2021/12/04 04:17:19;;;;;;;0.00;0.00;;;;;16.80;100497.00;;;;5123809;27;20084;-75
2021/12/04 04:19:49;;;;;;;0.00;0.00;;;;;16.80;100492.00;;;;5123651;27;20046;-75
2021/12/04 04:22:18;;;;;;;0.00;0.00;;;;;16.70;100495.00;;;;5123643;27;20038;-74
2021/12/04 04:24:49;;;;;;;0.00;0.00;;;;;16.70;100456.00;;;;5122136;28;20058;-75
2021/12/04 04:27:19;;;;;;;0.10;0.10;;;;;16.70;100475.00;;;;5123305;27;20110;-75
2021/12/04 04:29:48;;;;;;;0.00;0.00;;;;;16.80;100487.00;;;;5122367;28;20044;-76
2021/12/04 04:32:18;;;;;;;0.00;0.00;;;;;16.90;100488.00;;;;5124124;27;20043;-76
2021/12/04 04:34:52;;;;;;;0.00;0.00;;;;;16.90;100476.00;;;;5123497;27;20051;-76
2021/12/04 04:37:35;;;;;;;0.00;0.00;;;;;16.90;100482.00;;;;5123940;27;20550;-76
2021/12/04 05:10:18;;;;;;;0.10;0.10;;;;;16.60;100483.00;;;;5109636;28;20123;-75
2021/12/04 05:13:14;;;;;;;0.13;0.13;;;;;16.60;100498.00;;;;5109620;28;20069;-75
2021/12/04 05:21:06;;;;;;;0.00;0.00;;;;;16.50;100491.00;;;;5109128;28;20036;-75
2021/12/04 05:23:51;;;;;;;0.63;0.50;;;;;16.50;100486.00;;;;5108169;28;20464;-76
2021/12/04 05:26:29;;;;;;;0.20;0.20;;;;;16.40;100493.00;;;;5107237;28;20047;-76
2021/12/04 05:29:00;;;;;;;0.30;0.30;;;;;16.30;100486.00;;;;5109701;28;20047;-77
2021/12/04 05:31:32;;;;;;;1.33;0.45;;;;;16.30;100488.00;;;;5108735;28;20138;-74
2021/12/04 05:34:01;;;;;;;5.40;0.40;;;;;16.30;100480.00;;;;5108625;28;20066;-75
2021/12/04 05:36:31;;;;;;;1.17;0.40;;;;;16.20;100483.00;;;;5109189;28;20081;-77
2021/12/04 05:39:00;;;;;;;0.20;0.20;;;;;16.20;100482.00;;;;5108592;28;20074;-76
2021/12/04 05:41:30;;;;;;;0.00;0.00;;;;;16.20;100470.00;;;;5109198;28;20067;-75
2021/12/04 05:44:05;;;;;;;0.40;0.40;;;;;16.10;100461.00;;;;5109459;28;20214;-77
2021/12/04 05:46:44;;;;;;;0.17;0.17;;;;;16.10;100472.00;;;;5108235;28;20122;-75
2021/12/04 05:49:22;;;;;;;0.00;0.00;;;;;16.10;100453.00;;;;5108776;28;20401;-76
2021/12/04 05:57:10;;;;;;;0.00;0.00;;;;;16.10;100447.00;;;;5107231;28;20089;-75
2021/12/04 05:59:42;;;;;;;0.00;0.00;;;;;16.10;100440.00;;;;5108232;28;20796;-76
2021/12/04 06:02:12;;;;;;;;;;;;;16.10;100448.00;;;;5108874;28;20036;-74
2021/12/04 06:04:41;;;;;;;0.00;0.00;;;;;16.10;100408.00;;;;5107222;28;19947;-75
2021/12/04 06:07:12;;;;;;;0.00;0.00;;;;;16.20;100441.00;;;;5108601;28;20062;-76
2021/12/04 06:09:55;;;;;;;0.15;0.15;;;;;16.20;100464.00;;;;5106311;28;20049;-75
2021/12/04 06:12:26;;;;;;;0.00;0.00;;;;;16.10;100463.00;;;;5107983;28;20456;-76
2021/12/04 06:14:55;;;;;;;0.20;0.20;;;;;16.10;100452.00;;;;5106811;28;20218;-77
2021/12/04 06:17:38;;;;;;;0.00;0.00;;;;;16.10;100467.00;;;;5104767;28;20067;-75
2021/12/04 06:22:56;;;;;;;0.15;0.15;;;;;16.10;100463.00;;;;5106366;28;20410;-76
2021/12/04 06:25:27;;;;;;;0.00;0.00;;;;;16.20;100465.00;;;;5105949;28;20082;-75
2021/12/04 06:27:58;;;;;;;1065.78;508.92;;;;;16.10;100466.00;;;;5108046;28;20082;-76
2021/12/04 06:30:35;;;;;;;0.00;0.00;;;;;16.20;100448.00;;;;5099878;28;20130;-75
2021/12/04 06:33:07;;;;;;;0.00;0.00;;;;;16.10;100463.00;;;;5088041;28;20131;-77
2021/12/04 06:35:41;;;;;;;0.00;0.00;;;;;16.10;100463.00;;;;5087724;28;20040;-76
2021/12/04 06:38:14;;;;;;;0.00;0.00;;;;;16.10;100479.00;;;;5087252;28;20044;-77
2021/12/04 06:40:46;;;;;;;0.00;0.00;;;;;16.10;100477.00;;;;5087062;28;20036;-75
2021/12/04 06:43:16;;;;;;;0.00;0.00;;;;;16.10;100496.00;;;;5087597;28;20073;-74
2021/12/04 06:45:56;;;;;;;0.30;0.15;;;;;16.00;100495.00;;;;5087176;28;20656;-75
2021/12/04 06:48:41;;;;;;;0.22;0.13;;;;;16.00;100495.00;;;;5085314;28;20044;-74
2021/12/04 06:51:22;;;;;;;1.58;0.98;;;;;16.00;100479.00;;;;5085838;28;20060;-74
2021/12/04 06:54:16;;;;;;;0.20;0.20;;;;;16.00;100494.00;;;;5087038;28;20445;-75
2021/12/04 06:56:46;;;;;;;1.88;0.57;;;;;16.00;100498.00;;;;5087082;28;20051;-76
2021/12/04 06:59:20;;;;;;;0.52;0.52;;;;;16.10;100489.00;;;;5086091;28;20504;-76
2021/12/04 07:01:50;;;;;;;1.20;0.77;;;;;16.00;100496.00;;;;5086968;28;20044;-74
2021/12/04 07:04:21;;;;;;;0.00;0.00;;;;;16.00;100485.00;;;;5087077;28;20048;-76
2021/12/04 07:06:51;;;;;;;;;;;;;15.90;100487.00;;;;5087967;28;20431;-76
2021/12/04 07:09:20;;;;;;;0.10;0.10;;;;;15.90;100486.00;;;;5086891;28;19959;-76
2021/12/04 07:11:53;;;;;;;0.00;0.00;;;;;15.90;100477.00;;;;5086656;28;20418;-76
2021/12/04 07:14:32;;;;;;;0.20;0.20;;;;;15.80;100472.00;;;;5086600;28;20055;-75
2021/12/04 07:17:02;;;;;;;;;;;;;15.80;100479.00;;;;5086335;28;20411;-74
2021/12/04 07:19:32;;;;;;;0.22;0.22;;;;;15.90;100484.00;;;;5086545;28;19951;-74
2021/12/04 07:22:03;;;;;;;0.00;0.00;;;;;15.90;100489.00;;;;5085460;28;20105;-76
2021/12/04 07:24:33;;;;;;;0.00;0.00;;;;;15.90;100494.00;;;;5087035;28;20051;-74
2021/12/04 07:27:05;;;;;;;1.75;0.73;;;;;15.90;100506.00;;;;5086936;28;20067;-77
2021/12/04 07:29:37;;;;;;;0.10;0.10;;;;;15.90;100491.00;;;;5086174;28;20516;-76
2021/12/04 07:32:07;;;;;;;2.67;1.42;;;;;15.90;100483.00;;;;5086193;28;20460;-75
2021/12/04 07:34:37;;;;;;;0.00;0.00;;;;;15.90;100495.00;;;;5086364;28;20159;-77
2021/12/04 07:37:07;;;;;;;0.70;0.65;;;;;15.90;100490.00;;;;5086472;28;20048;-75
2021/12/04 07:39:36;;;;;;;0.00;0.00;;;;;15.90;100507.00;;;;5086393;28;20106;-76
2021/12/04 07:42:06;;;;;;;0.15;0.15;;;;;15.90;100513.00;;;;5086581;28;20052;-75
2021/12/04 07:44:36;;;;;;;1.40;0.82;;;;;15.90;100504.00;;;;5086187;28;20044;-77
2021/12/04 07:47:05;;;;;;;0.70;0.50;;;;;15.80;100520.00;;;;5086659;28;20047;-76
2021/12/04 07:49:37;;;;;;;1.38;0.75;;;;;15.80;100505.00;;;;5086340;28;20114;-76
2021/12/04 07:52:08;;;;;;;0.00;0.00;;;;;15.80;100505.00;;;;5086201;28;20563;-77
2021/12/04 07:54:38;;;;;;;0.00;0.00;;;;;15.80;100504.00;;;;5086541;28;20048;-75
2021/12/04 07:57:08;;;;;;;0.40;0.30;;;;;15.80;100510.00;;;;5085797;28;20109;-75
2021/12/04 07:59:52;;;;;;;0.00;0.00;;;;;15.90;100525.00;;;;5085923;28;20503;-76
2021/12/04 08:02:23;;;;;;;0.10;0.10;;;;;15.90;100525.00;;;;5086369;28;20072;-76
2021/12/04 08:04:52;;;;;;;0.20;0.20;;;;;15.90;100540.00;;;;5068927;28;20040;-75
2021/12/04 08:07:22;;;;;;;0.55;0.50;;;;;15.90;100540.00;;;;5086340;28;21154;-77
2021/12/04 08:09:51;;;;;;;0.05;0.05;;;;;16.00;100531.00;;;;5085411;28;20039;-75
2021/12/04 08:12:20;;;;;;;0.00;0.00;;;;;16.00;100537.00;;;;5086330;28;20105;-74
2021/12/04 08:14:51;;;;;;;0.00;0.00;;;;;16.00;100546.00;;;;5086196;28;20105;-76
2021/12/04 08:17:21;;;;;;;0.73;0.73;;;;;16.00;100545.00;;;;5086225;28;20130;-76
2021/12/04 08:19:51;;;;;;;0.05;0.05;;;;;15.90;100543.00;;;;5086599;28;20043;-77
2021/12/04 08:22:20;;;;;;;0.00;0.00;;;;;15.90;100546.00;;;;5085808;28;20052;-74
2021/12/04 08:24:50;;;;;;;2.13;0.70;;;;;15.90;100542.00;;;;5085928;28;20117;-74
2021/12/04 08:27:20;;;;;;;0.95;0.75;;;;;16.00;100555.00;;;;5087561;28;20052;-76
2021/12/04 08:29:49;;;;;;;0.00;0.00;;;;;16.00;100554.00;;;;5089620;28;20048;-76
2021/12/04 08:32:23;;;;;;;0.55;0.55;;;;;16.10;100564.00;;;;5088646;28;20563;-77
2021/12/04 08:34:53;;;;;;;0.68;0.68;;;;;16.10;100551.00;;;;5089537;28;20036;-76
2021/12/04 08:37:22;;;;;;;0.28;0.28;;;;;16.10;100561.00;;;;5089590;28;20050;-75
2021/12/04 08:39:52;;;;;;;0.95;0.95;;;;;16.10;100557.00;;;;5089607;28;20067;-75
2021/12/04 08:42:22;;;;;;;1.20;1.13;;;;;16.20;100566.00;;;;5089953;28;20047;-75
2021/12/04 08:45:12;;;;;;;0.52;0.52;;;;;16.20;100556.00;;;;5089596;28;20059;-76
2021/12/04 08:47:42;;;;;;;1.48;0.85;;;;;16.30;100563.00;;;;5089462;28;20047;-76
2021/12/04 08:50:20;;;;;;;0.00;0.00;;;;;16.40;100554.00;;;;5089349;28;20109;-74
2021/12/04 08:52:50;;;;;;;0.10;0.10;;;;;16.40;100573.00;;;;5089325;28;20123;-75
2021/12/04 08:55:19;;;;;;;0.00;0.00;;;;;16.60;100548.00;;;;5088880;28;20110;-76
2021/12/04 08:57:49;;;;;;;0.28;0.28;;;;;16.70;100571.00;;;;5088791;28;20051;-75
2021/12/04 09:00:34;;;;;;;0.00;0.00;;;;;16.90;100566.00;;;;5089373;28;20423;-76
2021/12/04 09:03:04;;;;;;;0.00;0.00;;;;;17.00;100573.00;;;;5088918;28;20064;-76
2021/12/04 09:05:35;;;;;;;;;;;;;17.00;100589.00;;;;5089525;28;20063;-76
2021/12/04 09:08:08;;;;;;;0.00;0.00;;;;;17.20;100586.00;;;;5088921;28;20436;-74
2021/12/04 09:10:41;;;;;;;0.00;0.00;;;;;17.30;100575.00;;;;5088792;28;20051;-76
2021/12/04 09:13:11;;;;;;;0.00;0.00;;;;;17.40;100593.00;;;;5088611;28;20082;-76
2021/12/04 09:15:41;;;;;;;0.00;0.00;;;;;17.60;100603.00;;;;5088813;28;20036;-73
2021/12/04 09:18:10;;;;;;;0.20;0.20;;;;;17.80;100587.00;;;;5089358;28;20044;-74
2021/12/04 09:20:40;;;;;;;0.00;0.00;;;;;17.80;100588.00;;;;5087230;28;20116;-75
2021/12/04 09:23:16;;;;;;;0.00;0.00;;;;;18.00;100598.00;;;;5088615;28;20040;-75
2021/12/04 09:25:51;;;;;;;0.00;0.00;;;;;18.50;100566.00;;;;5087582;28;20131;-76
2021/12/04 09:28:25;;;;;;;0.00;0.00;;;;;18.70;100582.00;;;;5088338;28;20128;-75
2021/12/04 09:31:23;;;;;;;0.00;0.00;;;;;18.60;100609.00;;;;5086998;28;20059;-76
2021/12/04 09:59:26;;;;;;;0.40;0.20;;;;;20.10;100634.00;;;;5110953;27;20040;-75
2021/12/04 10:16:59;;;;;;;0.00;0.00;;;;;21.20;100649.00;;;;5109403;28;20122;-77
2021/12/04 10:22:46;;;;;;;0.00;0.00;;;;;21.30;100635.00;;;;5107983;28;20528;-76
2021/12/04 10:33:42;;;;;;;0.00;0.00;;;;;22.80;100634.00;;;;5107843;28;20047;-75
2021/12/04 10:36:24;;;;;;;0.00;0.00;;;;;22.70;100642.00;;;;5106853;28;20532;-76
2021/12/04 10:38:55;;;;;;;6.35;2.95;;;;;23.30;100640.00;;;;5104766;28;20432;-76
2021/12/04 10:41:39;;;;;;;0.00;0.00;;;;;23.10;100644.00;;;;5106501;28;20051;-76
2021/12/04 10:44:27;;;;;;;0.00;0.00;;;;;22.80;100648.00;;;;5107532;28;20036;-75
2021/12/04 10:47:07;;;;;;;0.00;0.00;;;;;22.80;100625.00;;;;5107247;28;20513;-76
2021/12/04 10:50:06;;;;;;;0.28;0.28;;;;;23.60;100637.00;;;;5107493;28;20047;-76
2021/12/04 10:55:33;;;;;;;0.00;0.00;;;;;30.10;100484.00;;;;5106038;28;20047;-76
2021/12/04 11:04:17;;;;;;;0.10;0.10;;;;;33.80;100476.00;;;;5106773;28;20035;-78
2021/12/04 11:24:19;;;;;;;0.40;0.40;;;;;33.40;100487.00;;;;5106765;28;20081;-76
2021/12/04 11:38:42;;;;;;;8.55;1.80;;;;;31.70;100508.00;;;;5105494;28;20846;-75
2021/12/04 11:44:22;;;;;;;0.43;0.35;;;;;29.80;100527.00;;;;5105348;28;20683;-77
2021/12/04 11:46:59;;;;;;;0.00;0.00;;;;;29.80;100539.00;;;;5102312;28;20137;-75
2021/12/04 11:49:33;;;;;;;0.70;0.63;;;;;28.90;100550.00;;;;5105232;28;20043;-75
2021/12/04 11:52:21;;;;;;;0.00;0.00;;;;;29.30;100629.00;;;;5105646;28;20073;-77
2021/12/04 11:55:00;;;;;;;0.00;0.00;;;;;29.50;100633.00;;;;5106845;28;20122;-76
2021/12/04 11:57:36;;;;;;;0.28;0.28;;;;;28.90;100638.00;;;;5106854;28;20463;-78
2021/12/04 12:00:28;;;;;;;0.00;0.00;;;;;28.40;100648.00;;;;5105737;28;20058;-76
2021/12/04 12:03:24;;;;;;;0.55;0.40;;;;;29.20;100653.00;;;;5109297;28;20043;-76
2021/12/04 12:06:06;;;;;;;1.17;0.52;;;;;28.90;100654.00;;;;5110271;28;20041;-77
2021/12/04 12:08:43;;;;;;;0.00;0.00;;;;;28.80;100647.00;;;;5110493;28;20067;-77
2021/12/04 12:11:28;;;;;;;0.03;0.03;;;;;29.10;100658.00;;;;5107922;28;20093;-77
2021/12/04 12:14:05;;;;;;;1.20;0.52;;;;;28.90;100650.00;;;;5110545;28;20043;-75
2021/12/04 12:16:40;;;;;;;2.80;1.35;;;;;29.20;100645.00;;;;5111034;28;20521;-75
2021/12/04 12:19:29;;;;;;;0.17;0.17;;;;;29.80;100640.00;;;;5110948;28;20519;-77
2021/12/04 12:36:09;;;;;;;0.00;0.00;;;;;29.50;100632.00;;;;5117502;28;20039;-77
2021/12/04 12:39:05;;;;;;;2.70;0.65;;;;;30.20;100628.00;;;;5115084;28;20135;-77
2021/12/04 12:41:49;;;;;;;0.52;0.52;;;;;29.60;100638.00;;;;5079883;28;20043;-76
2021/12/04 12:44:24;;;;;;;1.10;1.02;;;;;29.80;100604.00;;;;5109827;28;20096;-77
2021/12/04 12:46:59;;;;;;;0.30;0.30;;;;;30.00;100622.00;;;;5110943;28;20512;-77
2021/12/04 12:49:40;;;;;;;0.10;0.10;;;;;30.30;100622.00;;;;5109823;28;20046;-77
2021/12/04 12:52:31;;;;;;;0.50;0.50;;;;;30.10;100625.00;;;;5110235;28;20468;-78
2021/12/04 12:55:08;;;;;;;0.00;0.00;;;;;30.20;100610.00;;;;5092209;28;20494;-76
2021/12/04 12:57:42;;;;;;;0.38;0.38;;;;;30.10;100616.00;;;;5109476;28;20130;-75
2021/12/04 13:11:42;;;;;;;0.15;0.15;;;;;29.70;100599.00;;;;5109135;28;20118;-77
2021/12/04 13:14:17;;;;;;;0.00;0.00;;;;;30.10;100602.00;;;;5108777;28;20050;-77
2021/12/04 13:16:58;;;;;;;0.00;0.00;;;;;30.60;100576.00;;;;5109770;28;20074;-75
2021/12/04 13:19:28;;;;;;;7.32;1.55;;;;;30.50;100593.00;;;;5107004;28;20063;-78
2021/12/04 13:22:06;;;;;;;0.10;0.10;;;;;30.60;100602.00;;;;5107852;28;20043;-77
2021/12/04 13:29:44;;;;;;;;;;;;;30.60;100590.00;;;;5044316;28;20045;-76
2021/12/04 13:32:16;;;;;;;0.50;0.45;;;;;31.30;100590.00;;;;5042146;28;20296;-77
2021/12/04 13:34:46;;;;;;;1.10;0.05;;;;;31.70;100588.00;;;;5038073;28;20041;-77
2021/12/04 13:37:15;;;;;;;1.15;0.50;;;;;31.40;100575.00;;;;5026789;28;20056;-77
2021/12/04 13:39:46;;;;;;;0.73;0.73;;;;;30.90;100548.00;;;;5039473;28;20041;-77
2021/12/04 13:42:15;;;;;;;0.00;0.00;;;;;30.80;100571.00;;;;5040435;28;20049;-76
2021/12/04 13:44:44;;;;;;;0.00;0.00;;;;;31.50;100563.00;;;;5043316;28;20052;-79
2021/12/04 13:47:14;;;;;;;0.20;0.20;;;;;31.40;100582.00;;;;5042759;28;20037;-76
2021/12/04 13:49:55;;;;;;;0.00;0.00;;;;;31.30;100578.00;;;;5041149;28;20520;-78
2021/12/04 13:52:26;;;;;;;;;;;;;31.10;100568.00;;;;5040164;28;20041;-79
2021/12/04 13:55:07;;;;;;;0.30;0.30;;;;;31.10;100553.00;;;;5041489;28;19924;-79
2021/12/04 13:57:41;;;;;;;0.52;0.25;;;;;30.60;100557.00;;;;5043532;28;20052;-77
2021/12/04 14:00:14;;;;;;;0.00;0.00;;;;;30.90;100560.00;;;;5025151;28;20427;-78
2021/12/04 14:02:44;;;;;;;0.50;0.50;;;;;31.00;100549.00;;;;5041134;28;20052;-77
2021/12/04 14:05:24;;;;;;;0.10;0.10;;;;;31.30;100568.00;;;;5039769;28;20546;-77
2021/12/04 14:07:59;;;;;;;0.20;0.10;;;;;31.30;100565.00;;;;5038763;28;20575;-78
2021/12/04 14:10:34;;;;;;;0.30;0.30;;;;;31.80;100549.00;;;;5042977;28;20037;-76
2021/12/04 14:13:05;;;;;;;0.25;0.20;;;;;32.10;100543.00;;;;5042703;28;20049;-77
2021/12/04 14:15:35;;;;;;;0.00;0.00;;;;;32.00;100531.00;;;;5042587;28;20072;-76
2021/12/04 14:18:08;;;;;;;0.65;0.65;;;;;31.80;100532.00;;;;5042490;28;20076;-75
2021/12/04 14:20:40;;;;;;;0.05;0.05;;;;;32.10;100534.00;;;;5042845;28;20092;-77
2021/12/04 14:23:11;;;;;;;0.20;0.20;;;;;32.20;100539.00;;;;5040870;28;20076;-75
2021/12/04 14:25:44;;;;;;;0.38;0.38;;;;;32.20;100530.00;;;;5025321;28;20077;-76
2021/12/04 14:28:19;;;;;;;0.13;0.08;;;;;32.20;100526.00;;;;5041002;28;20621;-76
2021/12/04 14:31:04;;;;;;;0.00;0.00;;;;;32.40;100527.00;;;;5041633;28;20156;-77
2021/12/04 14:33:39;;;;;;;0.57;0.13;;;;;32.70;100523.00;;;;5042779;28;20128;-78
2021/12/04 14:36:11;;;;;;;0.10;0.10;;;;;32.70;100518.00;;;;5042152;28;20797;-76
2021/12/04 14:38:47;;;;;;;0.10;0.10;;;;;33.10;100525.00;;;;5029584;28;20049;-77
2021/12/04 14:41:16;;;;;;;0.65;0.45;;;;;33.20;100520.00;;;;5028721;28;20049;-77
2021/12/04 14:43:51;;;;;;;0.43;0.43;;;;;32.70;100511.00;;;;5027801;28;20427;-76
2021/12/04 14:46:24;;;;;;;0.20;0.10;;;;;32.40;100507.00;;;;5028897;28;20042;-77
2021/12/04 14:48:54;;;;;;;0.00;0.00;;;;;32.80;100524.00;;;;5029546;28;20064;-79
2021/12/04 14:51:30;;;;;;;0.10;0.10;;;;;33.30;100505.00;;;;5029763;28;20438;-77
2021/12/04 14:54:00;;;;;;;0.45;0.43;;;;;33.20;100512.00;;;;5030937;28;20060;-77
2021/12/04 14:56:32;;;;;;;0.00;0.00;;;;;33.20;100509.00;;;;5039934;28;20049;-79
2021/12/04 14:59:12;;;;;;;58.17;3.05;;;;;33.30;100514.00;;;;5028988;28;20117;-78
2021/12/04 15:01:48;;;;;;;0.00;0.00;;;;;33.70;100505.00;;;;5028601;28;20124;-78
2021/12/04 15:04:18;;;;;;;0.20;0.20;;;;;34.00;100507.00;;;;5028677;28;20124;-77
2021/12/04 15:07:01;;;;;;;0.10;0.00;;;;;33.70;100516.00;;;;5028354;28;20614;-75
2021/12/04 15:09:30;;;;;;;0.10;0.10;;;;;33.20;100515.00;;;;5028211;28;20797;-78
2021/12/04 15:12:01;;;;;;;0.00;0.00;;;;;33.60;100492.00;;;;5028380;28;20038;-77
2021/12/04 15:14:33;;;;;;;0.08;0.08;;;;;34.40;100504.00;;;;5028171;28;20049;-79
2021/12/04 15:17:14;;;;;;;0.00;0.00;;;;;34.20;100487.00;;;;5028887;28;20076;-77
2021/12/04 15:19:46;;;;;;;0.00;0.00;;;;;34.50;100487.00;;;;5028722;28;20540;-78
2021/12/04 15:22:28;;;;;;;4.22;0.13;;;;;33.80;100476.00;;;;5027871;28;20512;-75
2021/12/04 15:24:58;;;;;;;0.47;0.38;;;;;33.80;100491.00;;;;5027033;28;20124;-78
2021/12/04 15:27:28;;;;;;;;;;;;;33.50;100489.00;;;;5028674;28;20046;-75
2021/12/04 15:29:59;;;;;;;0.00;0.00;;;;;34.00;100482.00;;;;5028091;28;19925;-77
2021/12/04 15:32:30;;;;;;;0.00;0.00;;;;;34.30;100470.00;;;;5028288;28;20144;-78
2021/12/04 15:35:13;;;;;;;0.10;0.10;;;;;34.70;100476.00;;;;5027849;28;20512;-75
2021/12/04 15:37:53;;;;;;;0.00;0.00;;;;;34.70;100467.00;;;;5026870;28;20459;-77
2021/12/04 15:54:52;;;;;;;0.47;0.35;;;;;35.20;100427.00;;;;5027681;28;20076;-76
2021/12/04 15:57:26;;;;;;;0.10;0.10;;;;;35.50;100443.00;;;;5026166;28;20073;-77
2021/12/04 16:00:17;;;;;;;0.25;0.25;;;;;35.70;100441.00;;;;5027703;28;20091;-76
2021/12/04 16:02:51;;;;;;;1.70;0.32;;;;;35.60;100443.00;;;;5027263;28;20445;-78
2021/12/04 16:05:23;;;;;;;0.10;0.10;;;;;35.40;100450.00;;;;5028223;28;20095;-77
2021/12/04 16:08:11;;;;;;;0.10;0.03;;;;;35.60;100450.00;;;;5027700;28;20609;-82
2021/12/04 16:10:44;;;;;;;0.10;0.10;;;;;35.10;100444.00;;;;5026958;28;20140;-79
2021/12/04 16:13:23;;;;;;;0.00;0.00;;;;;35.20;100437.00;;;;5025480;28;20527;-80
2021/12/04 16:15:57;;;;;;;0.35;0.22;;;;;35.70;100437.00;;;;5027543;28;20137;-79
2021/12/04 16:18:42;;;;;;;0.00;0.00;;;;;35.10;100417.00;;;;5025580;28;20049;-76